HAJ weather

Hannover Airport
Hannover, Lower Saxony, Germany

Public forecast

Using degrees Celsius for public forecast. Weather courtesy of forecast.io.

Current aviation weather report (METAR) for Hannover Airport

Retrieved 2019/12/14 15:20 UTC (2 minutes ago):

EDDV 141520Z 25014G24KT 9999 SCT032 BKN038 06/01 Q0990 NOSIG

Aviation forecast (TAF) for Hannover Airport

Retrieved 2019/12/14 12:36 UTC (3 hours ago):

TAF EDDV 141100Z 1412/1512 24014KT 9999 SCT030 TEMPO 1412/1418 24015G25KT BECMG 1422/1424 19008KT BECMG 1506/1508 22015G25KT